Time;durP1;ratioP1;P1;durP2;ratioP2;P2;SDS_P1;SDS_P2;PMS_P1;PMS_P2;Temp;Humidity;BMP_temperature;BMP_pressure;BME280_temperature;BME280_humidity;BME280_pressure;Samples;Min_cycle;Max_cycle;Signal;HPM_P1;HPM_P2
2023/08/30 00:01:02;;;;;;;8.50;4.40;;;;;;;-12.93;100.00;96199.28;4989434;28;20047;-64
2023/08/30 00:03:29;;;;;;;5.53;3.75;;;;;;;-12.60;100.00;96253.41;4968671;28;20051;-64
2023/08/30 00:06:02;;;;;;;5.93;4.07;;;;;;;-12.39;100.00;96273.09;4969521;28;20047;-64
2023/08/30 00:08:29;;;;;;;6.82;3.65;;;;;;;-11.07;100.00;96510.25;4967840;28;20055;-64
2023/08/30 00:10:58;;;;;;;5.30;3.55;;;;;;;-10.46;100.00;96628.56;4970258;28;20051;-63
2023/08/30 00:13:26;;;;;;;5.18;3.42;;;;;;;-10.44;100.00;96623.25;4969021;28;20495;-64
2023/08/30 00:15:52;;;;;;;10.48;3.90;;;;;;;-10.19;100.00;96661.69;4968352;28;20043;-63
2023/08/30 00:18:19;;;;;;;6.95;3.83;;;;;;;-10.32;100.00;96641.16;4967582;28;20043;-64
2023/08/30 00:20:45;;;;;;;6.32;3.80;;;;;;;-10.24;100.00;96669.00;4967459;28;20051;-64
2023/08/30 00:23:12;;;;;;;5.30;3.92;;;;;;;-10.31;100.00;96649.75;4965486;28;20043;-64
2023/08/30 00:25:38;;;;;;;5.13;3.55;;;;;;;-10.49;100.00;96615.88;4967799;28;20062;-63
2023/08/30 00:28:06;;;;;;;5.95;3.72;;;;;;;-10.74;100.00;96575.69;4968190;28;20058;-63
2023/08/30 00:30:33;;;;;;;6.97;4.18;;;;;;;-10.53;100.00;96610.13;4969000;28;20055;-63
2023/08/30 00:33:00;;;;;;;5.47;3.55;;;;;;;-10.71;100.00;96585.78;4969329;28;20043;-63
2023/08/30 00:35:27;;;;;;;7.40;4.18;;;;;;;-10.56;100.00;96609.56;4969048;28;20073;-66
2023/08/30 00:37:53;;;;;;;5.65;3.95;;;;;;;-10.63;100.00;96598.91;4970256;28;20106;-62
2023/08/30 00:40:25;;;;;;;8.70;4.65;;;;;;;-10.65;100.00;96597.38;4968498;28;20488;-63
2023/08/30 00:42:54;;;;;;;12.68;6.03;;;;;;;-10.53;100.00;96630.03;4969846;28;20047;-63
2023/08/30 00:45:21;;;;;;;15.70;4.22;;;;;;;-10.66;100.00;96588.78;4968901;28;20051;-63
2023/08/30 00:47:47;;;;;;;55.15;23.27;;;;;;;-10.47;100.00;96632.94;4968777;28;20043;-62
2023/08/30 00:50:16;;;;;;;7.20;4.28;;;;;;;-10.66;100.00;96593.16;4965753;28;20047;-63
2023/08/30 00:52:45;;;;;;;7.28;4.70;;;;;;;-10.72;100.00;96586.72;4964842;28;20051;-64
2023/08/30 00:55:11;;;;;;;9.63;6.10;;;;;;;-10.99;100.00;96535.50;4963774;28;20047;-63
2023/08/30 00:57:38;;;;;;;8.18;5.07;;;;;;;-11.17;100.00;96506.78;4962612;28;20051;-63
2023/08/30 01:00:06;;;;;;;6.85;3.90;;;;;;;-10.92;100.00;96557.34;4962696;28;20039;-63
2023/08/30 01:02:33;;;;;;;4.82;3.55;;;;;;;-11.05;100.00;96523.88;4974682;28;20142;-61
2023/08/30 01:08:30;;;;;;;5.40;3.58;;;;;;;-10.64;100.00;96604.22;4940810;29;20083;-62
2023/08/30 01:11:16;;;;;;;5.28;4.05;;;;;;;-10.10;100.00;96717.91;4941392;29;20103;-62
2023/08/30 01:13:58;;;;;;;5.65;4.10;;;;;;;-10.38;100.00;96679.72;4942127;29;20098;-62
2023/08/30 01:16:25;;;;;;;7.75;3.88;;;;;;;-10.39;100.00;96662.53;4942082;29;20048;-62
2023/08/30 01:18:56;;;;;;;6.85;4.10;;;;;;;-10.47;100.00;96663.19;4941677;29;20048;-62
2023/08/30 01:21:36;;;;;;;8.88;3.97;;;;;;;-10.85;100.00;96612.00;4941802;29;20052;-62
2023/08/30 01:24:07;;;;;;;5.97;3.78;;;;;;;-10.50;100.00;96674.63;4941659;29;20054;-62
2023/08/30 01:26:44;;;;;;;6.47;3.92;;;;;;;-10.89;100.00;96606.28;4941346;29;21639;-61
2023/08/30 01:29:12;;;;;;;6.72;4.18;;;;;;;-10.98;100.00;96571.59;4941794;29;20087;-63
2023/08/30 01:31:41;;;;;;;10.63;4.07;;;;;;;-10.53;100.00;96667.09;4940658;29;20047;-62
2023/08/30 01:34:08;;;;;;;8.55;4.40;;;;;;;-10.83;100.00;96620.44;4940172;29;20087;-62
2023/08/30 01:36:36;;;;;;;5.47;4.00;;;;;;;-10.64;100.00;96651.66;4940564;29;20043;-63
2023/08/30 01:39:04;;;;;;;4.80;3.95;;;;;;;-10.36;100.00;96711.53;4964249;28;20053;-62
2023/08/30 01:41:35;;;;;;;7.78;4.38;;;;;;;-10.39;100.00;96711.78;4981300;28;20061;-63
2023/08/30 01:44:04;;;;;;;5.40;4.00;;;;;;;-10.70;100.00;96662.50;4981771;28;20042;-62
2023/08/30 01:46:33;;;;;;;8.48;4.28;;;;;;;-10.67;100.00;96682.97;4979167;28;20105;-62
2023/08/30 01:49:03;;;;;;;6.38;4.15;;;;;;;-10.77;100.00;96648.44;4979821;28;20412;-62
2023/08/30 01:51:31;;;;;;;6.75;4.15;;;;;;;-10.79;100.00;96629.59;4978094;28;20062;-62
2023/08/30 01:53:58;;;;;;;4.65;3.40;;;;;;;-9.66;100.00;96832.59;4980045;28;20430;-61
2023/08/30 01:56:24;;;;;;;6.25;3.65;;;;;;;-9.91;100.00;96794.94;4978569;28;20518;-62
2023/08/30 01:58:52;;;;;;;7.22;4.20;;;;;;;-9.99;100.00;96806.00;4962334;28;20050;-61
2023/08/30 02:01:18;;;;;;;6.07;3.80;;;;;;;-10.06;100.00;96791.06;4979260;28;20043;-61
2023/08/30 02:03:45;;;;;;;7.55;4.03;;;;;;;-10.12;100.00;96791.59;4977554;28;20396;-62
2023/08/30 02:06:18;;;;;;;8.15;4.13;;;;;;;-10.14;100.00;96783.91;4977827;28;20046;-62
2023/08/30 02:09:00;;;;;;;7.55;3.67;;;;;;;-9.86;100.00;96818.72;4976998;28;20144;-62
2023/08/30 02:11:30;;;;;;;6.38;3.95;;;;;;;-9.85;100.00;96817.78;4977131;28;20122;-61
2023/08/30 02:13:59;;;;;;;6.47;4.03;;;;;;;-10.00;100.00;96806.09;4977649;28;20054;-62
2023/08/30 02:16:27;;;;;;;10.13;4.32;;;;;;;-10.18;100.00;96784.31;4976759;28;20282;-62
2023/08/30 02:18:55;;;;;;;8.30;4.00;;;;;;;-10.44;100.00;96740.66;4977439;28;20047;-62
2023/08/30 02:21:22;;;;;;;10.27;3.90;;;;;;;-10.70;100.00;96709.13;4976651;28;20089;-62
2023/08/30 02:23:52;;;;;;;5.40;4.40;;;;;;;-10.37;100.00;96772.03;4976499;28;20046;-62
2023/08/30 02:26:22;;;;;;;7.85;4.63;;;;;;;-10.75;100.00;96726.81;4976428;28;20134;-62
2023/08/30 02:28:49;;;;;;;7.55;4.57;;;;;;;-10.79;100.00;96712.44;4976717;28;20097;-62
2023/08/30 02:31:15;;;;;;;13.35;4.65;;;;;;;-11.77;100.00;96545.31;4975654;28;20046;-62
2023/08/30 02:33:42;;;;;;;7.40;4.78;;;;;;;-11.91;100.00;96517.19;4959123;28;20053;-62
2023/08/30 02:36:10;;;;;;;5.70;4.40;;;;;;;-11.63;100.00;96570.06;4976693;28;20047;-62
2023/08/30 02:38:37;;;;;;;8.00;4.70;;;;;;;-11.21;100.00;96648.53;4976082;28;20458;-62
2023/08/30 02:41:05;;;;;;;7.95;4.30;;;;;;;-11.56;100.00;96596.25;4976817;28;20105;-62
2023/08/30 02:43:32;;;;;;;8.32;4.40;;;;;;;-11.93;100.00;96530.25;4976837;28;20720;-62
2023/08/30 02:46:01;;;;;;;10.00;4.72;;;;;;;-12.02;100.00;96510.28;4959292;28;20102;-62
2023/08/30 02:48:28;;;;;;;5.22;4.10;;;;;;;-12.11;100.00;96492.13;4976741;28;20121;-62
2023/08/30 02:50:54;;;;;;;8.50;4.68;;;;;;;-12.24;100.00;96467.28;4979128;28;20495;-62
2023/08/30 02:53:21;;;;;;;12.00;5.20;;;;;;;-12.33;100.00;96462.03;4980587;28;20086;-62
2023/08/30 02:55:50;;;;;;;8.90;4.57;;;;;;;-13.46;100.00;96276.56;4981064;28;20050;-62
2023/08/30 02:58:16;;;;;;;6.30;4.30;;;;;;;-13.81;100.00;96220.06;4979906;28;20105;-62
2023/08/30 03:00:43;;;;;;;10.02;4.45;;;;;;;-13.90;100.00;96208.72;4981385;28;20046;-62
2023/08/30 03:03:09;;;;;;;10.23;4.70;;;;;;;-14.80;100.00;96059.56;4980477;28;20101;-62
2023/08/30 03:05:37;;;;;;;6.13;4.13;;;;;;;-15.18;100.00;96005.94;4981150;28;20125;-61
2023/08/30 03:08:04;;;;;;;8.38;5.22;;;;;;;-15.44;100.00;95959.09;4980720;28;20082;-61
2023/08/30 03:10:33;;;;;;;5.32;4.30;;;;;;;-15.47;100.00;95948.22;4979187;28;20055;-62
2023/08/30 03:13:00;;;;;;;8.40;4.28;;;;;;;-15.60;100.00;95920.06;4979956;28;20062;-62
2023/08/30 03:15:26;;;;;;;8.82;4.28;;;;;;;-16.02;100.00;95847.97;4980308;28;20102;-62
2023/08/30 03:17:53;;;;;;;9.00;4.32;;;;;;;-16.15;100.00;95829.31;4980730;28;20050;-62
2023/08/30 03:20:19;;;;;;;7.40;4.47;;;;;;;-16.04;100.00;95862.69;4980050;28;20050;-62
2023/08/30 03:22:46;;;;;;;5.88;4.13;;;;;;;-15.86;100.00;95899.78;4980148;28;20051;-62
2023/08/30 03:25:12;;;;;;;6.40;4.22;;;;;;;-16.37;100.00;95814.69;4980411;28;20102;-63
2023/08/30 03:27:39;;;;;;;7.03;4.45;;;;;;;-16.54;100.00;95790.31;4979610;28;20106;-62
2023/08/30 03:30:06;;;;;;;9.90;4.70;;;;;;;-16.55;100.00;95786.94;4980221;28;20561;-62
2023/08/30 03:32:33;;;;;;;8.27;4.53;;;;;;;-17.17;100.00;95682.19;4979687;28;20125;-62
2023/08/30 03:34:59;;;;;;;7.05;4.50;;;;;;;-17.71;100.00;95581.22;4980493;28;20055;-62
2023/08/30 03:37:26;;;;;;;10.73;4.70;;;;;;;-17.82;100.00;95585.47;4980313;28;20486;-62
2023/08/30 03:39:52;;;;;;;5.50;4.38;;;;;;;-17.63;100.00;95618.22;4980103;28;20470;-62
2023/08/30 03:42:19;;;;;;;7.72;4.75;;;;;;;-17.71;100.00;95611.13;4980341;28;20047;-62
2023/08/30 03:44:45;;;;;;;7.85;4.32;;;;;;;-18.09;100.00;95535.41;4979917;28;20055;-62
2023/08/30 03:47:12;;;;;;;6.68;4.28;;;;;;;-17.70;100.00;95621.22;4980437;28;20047;-62
2023/08/30 03:49:39;;;;;;;11.40;5.28;;;;;;;-17.84;100.00;95597.56;4978250;28;20466;-61
2023/08/30 03:52:05;;;;;;;6.25;4.35;;;;;;;-17.69;100.00;95630.53;4979553;28;20043;-62
2023/08/30 03:54:32;;;;;;;12.60;4.95;;;;;;;-17.72;100.00;95635.88;4978535;28;20051;-62
2023/08/30 03:56:58;;;;;;;5.20;4.40;;;;;;;-17.94;100.00;95599.97;4978419;28;20039;-62
2023/08/30 03:59:27;;;;;;;9.27;5.20;;;;;;;-17.75;100.00;95628.44;4979592;28;20047;-62
2023/08/30 04:01:53;;;;;;;13.40;5.20;;;;;;;-17.88;100.00;95591.06;4977352;28;20046;-63
2023/08/30 04:04:20;;;;;;;6.43;4.88;;;;;;;-18.35;100.00;95504.03;4979444;28;20101;-63
2023/08/30 04:06:47;;;;;;;8.40;5.20;;;;;;;-17.75;100.00;95607.13;4979519;28;20455;-63
2023/08/30 04:09:13;;;;;;;8.43;4.47;;;;;;;-18.27;100.00;95509.41;4979886;28;20110;-63
2023/08/30 04:11:40;;;;;;;7.22;4.93;;;;;;;-18.11;100.00;95539.81;4980351;28;20039;-62
2023/08/30 04:14:07;;;;;;;8.63;5.80;;;;;;;-17.90;100.00;95579.16;4979753;28;20470;-62
2023/08/30 04:16:34;;;;;;;9.00;4.80;;;;;;;-18.25;100.00;95525.47;4979354;28;20058;-62
2023/08/30 04:19:00;;;;;;;8.38;5.03;;;;;;;-18.50;100.00;95487.28;4979994;28;20474;-62
2023/08/30 04:21:27;;;;;;;8.15;5.88;;;;;;;-17.96;100.00;95576.22;4979052;28;20054;-62
2023/08/30 04:23:54;;;;;;;14.60;5.13;;;;;;;-18.18;100.00;95536.06;4978323;28;20075;-62
2023/08/30 04:26:20;;;;;;;9.13;5.55;;;;;;;-18.26;100.00;95539.19;4977994;28;20054;-62
2023/08/30 04:28:47;;;;;;;8.60;5.40;;;;;;;-20.10;100.00;95242.56;4979013;28;20050;-62
2023/08/30 04:31:13;;;;;;;6.80;5.30;;;;;;;-20.11;100.00;95231.53;4978318;28;20046;-63
2023/08/30 04:33:40;;;;;;;7.82;5.57;;;;;;;-20.24;100.00;95212.09;4979283;28;20564;-62
2023/08/30 04:36:07;;;;;;;7.95;5.43;;;;;;;-19.83;100.00;95272.94;4978972;28;20050;-62
2023/08/30 04:38:37;;;;;;;9.73;5.03;;;;;;;-19.35;100.00;95352.81;4978871;28;20043;-62
2023/08/30 04:41:17;;;;;;;8.43;5.32;;;;;;;-19.19;100.00;95370.44;4979467;28;20046;-62
2023/08/30 04:43:44;;;;;;;9.30;5.13;;;;;;;-19.59;100.00;95298.41;4979534;28;20074;-62
2023/08/30 04:46:10;;;;;;;7.53;4.97;;;;;;;-19.49;100.00;95313.91;4979681;28;20043;-62
2023/08/30 04:48:37;;;;;;;5.88;4.85;;;;;;;-20.08;100.00;95200.72;4980849;28;20051;-62
2023/08/30 04:51:04;;;;;;;11.73;6.00;;;;;;;-19.55;100.00;95276.06;4981732;28;20050;-62
2023/08/30 04:53:31;;;;;;;9.00;5.47;;;;;;;-18.77;100.00;95396.34;4981070;28;20105;-62
2023/08/30 04:55:58;;;;;;;6.80;4.82;;;;;;;-17.88;100.00;95529.66;4980540;28;20053;-62
2023/08/30 04:58:25;;;;;;;9.10;4.90;;;;;;;-14.62;100.00;96048.81;4981838;28;20499;-62
2023/08/30 05:00:56;;;;;;;8.73;4.72;;;;;;;-14.52;100.00;96067.72;4981529;28;20438;-62
2023/08/30 05:03:22;;;;;;;6.63;4.05;;;;;;;-13.89;100.00;96153.69;4981069;28;20054;-62
2023/08/30 05:05:49;;;;;;;9.40;4.90;;;;;;;-10.64;100.00;96680.13;4963669;28;20047;-62
2023/08/30 05:08:16;;;;;;;7.82;4.68;;;;;;;-9.35;100.00;96876.72;4963793;28;20047;-62
2023/08/30 05:10:43;;;;;;;7.50;4.45;;;;;;;-8.08;100.00;97048.50;4979081;28;20043;-62
2023/08/30 05:13:09;;;;;;;7.95;3.72;;;;;;;-7.74;100.00;97078.53;4978297;28;20042;-61
2023/08/30 05:15:36;;;;;;;4.80;3.85;;;;;;;-1.41;100.00;98104.91;4979888;28;20046;-61
2023/08/30 05:18:04;;;;;;;4.40;3.40;;;;;;;3.08;100.00;98828.19;4978849;28;20157;-62
2023/08/30 05:20:30;;;;;;;7.05;3.42;;;;;;;4.74;100.00;99084.97;4980121;28;20499;-62
2023/08/30 05:22:57;;;;;;;8.80;3.85;;;;;;;6.09;100.00;99288.59;4979508;28;20038;-62
2023/08/30 05:25:24;;;;;;;7.85;3.90;;;;;;;7.03;100.00;99438.28;4979427;28;20499;-62
2023/08/30 05:27:51;;;;;;;6.30;3.28;;;;;;;7.01;100.00;99419.78;4980216;28;20051;-62
2023/08/30 05:30:17;;;;;;;6.35;3.58;;;;;;;7.28;100.00;99453.22;4979236;28;20077;-62
2023/08/30 05:32:44;;;;;;;6.68;3.10;;;;;;;7.45;100.00;99503.91;4981463;28;20555;-62
2023/08/30 05:35:11;;;;;;;7.97;3.00;;;;;;;7.59;100.00;99533.38;4980640;28;20107;-64
2023/08/30 05:37:37;;;;;;;6.35;3.30;;;;;;;7.59;100.00;99516.53;4980912;28;20570;-62
2023/08/30 05:40:04;;;;;;;18.17;4.57;;;;;;;7.69;100.00;99525.19;4980739;28;20148;-62
2023/08/30 05:42:31;;;;;;;42.05;5.97;;;;;;;7.69;100.00;99541.22;4981625;28;20051;-63
2023/08/30 05:44:58;;;;;;;17.75;5.05;;;;;;;7.83;100.00;99555.69;4983198;28;20046;-62
2023/08/30 05:47:24;;;;;;;15.00;4.10;;;;;;;7.91;100.00;99550.34;4982034;28;20046;-62
2023/08/30 05:49:51;;;;;;;6.38;4.15;;;;;;;7.93;100.00;99548.38;4981148;28;20061;-63
2023/08/30 05:52:18;;;;;;;8.82;3.95;;;;;;;8.02;100.00;99563.38;4981152;28;20459;-62
2023/08/30 05:54:44;;;;;;;10.25;3.45;;;;;;;8.24;100.00;99567.13;4980779;28;20058;-62
2023/08/30 05:57:11;;;;;;;7.47;3.70;;;;;;;8.24;100.00;99568.97;4981840;28;20038;-64
2023/08/30 05:59:37;;;;;;;6.22;3.75;;;;;;;8.41;100.00;99607.97;4981129;28;20113;-62
2023/08/30 06:02:04;;;;;;;17.08;11.30;;;;;;;8.80;100.00;99641.88;4981208;28;20479;-62
2023/08/30 06:04:31;;;;;;;16.88;9.77;;;;;;;8.72;100.00;99629.38;4981184;28;20051;-62
2023/08/30 06:06:57;;;;;;;22.75;11.35;;;;;;;8.82;100.00;99626.50;4980062;28;20462;-65
2023/08/30 06:09:24;;;;;;;10.75;4.43;;;;;;;8.59;100.00;99576.47;4981211;28;20105;-65
2023/08/30 06:11:50;;;;;;;11.15;3.80;;;;;;;8.60;100.00;99553.22;4980226;28;20042;-65
2023/08/30 06:14:18;;;;;;;20.42;4.32;;;;;;;8.63;100.00;99558.22;4982261;28;20050;-64
2023/08/30 06:16:44;;;;;;;18.55;3.65;;;;;;;8.75;100.00;99553.34;4981215;28;20109;-66
2023/08/30 06:19:11;;;;;;;10.25;3.40;;;;;;;8.82;100.00;99563.13;4966304;28;20124;-66
2023/08/30 06:21:37;;;;;;;9.23;2.92;;;;;;;8.87;100.00;99559.91;4981647;28;20047;-65
2023/08/30 06:24:04;;;;;;;6.82;3.33;;;;;;;8.92;100.00;99570.94;4982417;28;20117;-66
2023/08/30 06:26:32;;;;;;;4.65;2.63;;;;;;;9.02;100.00;99576.88;4987074;28;20055;-64
2023/08/30 06:28:59;;;;;;;7.03;2.50;;;;;;;8.99;100.00;99577.25;4986231;28;20179;-65
2023/08/30 06:31:32;;;;;;;5.18;2.88;;;;;;;9.07;100.00;99565.63;4986572;28;20053;-65
2023/08/30 06:33:59;;;;;;;8.38;2.85;;;;;;;9.09;100.00;99572.47;4986241;28;20077;-65
2023/08/30 06:36:26;;;;;;;7.07;2.70;;;;;;;9.10;100.00;99567.97;4985799;28;20106;-65
2023/08/30 06:38:52;;;;;;;5.22;2.70;;;;;;;9.26;100.00;99577.72;4986149;28;20058;-65
2023/08/30 06:41:19;;;;;;;7.80;3.40;;;;;;;9.34;100.00;99590.22;4986155;28;20050;-64
2023/08/30 06:43:45;;;;;;;6.57;3.00;;;;;;;9.37;100.00;99601.41;4987305;28;20050;-64
2023/08/30 06:46:12;;;;;;;5.82;2.45;;;;;;;9.54;100.00;99607.44;4986161;28;20078;-64
2023/08/30 06:48:38;;;;;;;5.15;2.45;;;;;;;9.75;100.00;99604.91;4986559;28;20756;-65
2023/08/30 06:51:05;;;;;;;5.07;2.42;;;;;;;10.09;100.00;99611.56;4987170;28;20078;-64
2023/08/30 06:53:31;;;;;;;6.20;2.38;;;;;;;10.18;100.00;99629.25;4987420;28;20055;-65
2023/08/30 06:55:59;;;;;;;8.38;2.60;;;;;;;10.26;100.00;99606.88;4986750;28;20471;-65
2023/08/30 06:58:26;;;;;;;4.63;2.40;;;;;;;10.34;100.00;99609.47;4986336;28;20046;-64
2023/08/30 07:00:53;;;;;;;4.50;2.38;;;;;;;10.11;100.00;99579.25;4986170;28;20051;-64
2023/08/30 07:03:19;;;;;;;5.03;2.28;;;;;;;9.86;100.00;99535.84;4985961;28;20050;-65
2023/08/30 07:05:49;;;;;;;7.00;2.22;;;;;;;9.53;100.00;99434.41;4986617;28;20125;-65
2023/08/30 07:08:15;;;;;;;3.08;1.70;;;;;;;9.53;100.00;99400.44;4985091;28;20078;-65
2023/08/30 07:10:42;;;;;;;8.52;2.15;;;;;;;9.69;100.00;99425.38;4986133;28;20072;-65
2023/08/30 07:13:12;;;;;;;5.43;1.90;;;;;;;9.78;100.00;99397.47;4986237;28;20046;-64
2023/08/30 07:15:40;;;;;;;4.88;2.17;;;;;;;10.50;100.00;99487.78;4986267;28;20050;-64
2023/08/30 07:18:08;;;;;;;7.22;1.80;;;;;;;11.54;100.00;99626.91;4987221;28;20411;-64
2023/08/30 07:20:36;;;;;;;3.90;2.38;;;;;;;12.27;100.00;99732.34;4986680;28;20063;-65
2023/08/30 07:23:03;;;;;;;3.40;2.10;;;;;;;12.37;100.00;99806.28;4985255;28;20070;-64
2023/08/30 07:25:32;;;;;;;7.82;2.22;;;;;;;12.17;100.00;99773.03;4984782;28;20122;-65
2023/08/30 07:28:02;;;;;;;2.40;1.70;;;;;;;12.14;100.00;99731.25;4986166;28;20074;-65
2023/08/30 07:30:29;;;;;;;4.63;1.52;;;;;;;12.39;100.00;99769.28;4987095;28;20050;-64
2023/08/30 07:32:56;;;;;;;3.70;1.90;;;;;;;12.50;100.00;99769.78;4985998;28;20050;-64
2023/08/30 07:35:23;;;;;;;15.85;1.80;;;;;;;12.59;100.00;99830.47;4985610;28;20047;-64
2023/08/30 07:37:49;;;;;;;4.85;1.60;;;;;;;12.00;100.00;99742.06;4985219;28;20050;-65
2023/08/30 07:40:16;;;;;;;8.07;1.70;;;;;;;11.97;100.00;99729.00;4985818;28;20090;-65
2023/08/30 07:42:42;;;;;;;3.35;1.77;;;;;;;11.99;100.00;99748.47;4986591;28;20075;-65
2023/08/30 07:45:09;;;;;;;8.05;1.73;;;;;;;11.94;100.00;99770.56;4986085;28;20050;-67
2023/08/30 07:47:36;;;;;;;3.22;1.73;;;;;;;11.97;100.00;99764.81;4986636;28;20058;-64
2023/08/30 07:50:05;;;;;;;7.40;1.70;;;;;;;12.08;100.00;99775.03;4985992;28;20121;-66
2023/08/30 07:52:32;;;;;;;6.50;1.95;;;;;;;12.53;100.00;99847.41;4986462;28;20058;-67
2023/08/30 07:55:11;;;;;;;4.00;2.20;;;;;;;13.24;100.00;99939.69;4986629;28;20317;-67
2023/08/30 07:57:38;;;;;;;2.13;1.60;;;;;;;13.33;100.00;99973.53;4986246;28;20105;-65
2023/08/30 08:00:05;;;;;;;8.48;2.13;;;;;;;13.15;100.00;99959.75;4969556;28;20039;-66
2023/08/30 08:02:32;;;;;;;4.15;1.60;;;;;;;13.07;100.00;99938.31;4987024;28;20059;-66
2023/08/30 08:04:59;;;;;;;4.25;2.08;;;;;;;13.19;100.00;99950.25;4987435;28;20043;-66
2023/08/30 08:07:25;;;;;;;5.95;1.77;;;;;;;13.02;100.00;99955.06;4987032;28;20050;-65
2023/08/30 08:09:55;;;;;;;11.10;5.32;;;;;;;12.82;100.00;99922.59;4987315;28;20047;-65
2023/08/30 08:12:21;;;;;;;6.15;3.47;;;;;;;13.19;100.00;99946.72;4987168;28;20063;-65
2023/08/30 08:14:48;;;;;;;9.88;5.20;;;;;;;13.32;100.00;99966.50;4987044;28;20049;-65
2023/08/30 08:17:15;;;;;;;6.78;2.40;;;;;;;13.46;100.00;99971.97;4986991;28;20462;-65
2023/08/30 08:19:42;;;;;;;9.38;2.20;;;;;;;13.61;100.00;99985.34;4987814;28;20042;-65
2023/08/30 08:22:09;;;;;;;5.20;1.70;;;;;;;13.83;100.00;100009.31;4986713;28;20066;-65
2023/08/30 08:24:36;;;;;;;1.30;1.15;;;;;;;14.15;100.00;100034.00;4986504;28;20097;-65
2023/08/30 08:27:05;;;;;;;4.75;1.45;;;;;;;14.25;100.00;100037.16;4986712;28;20114;-64
2023/08/30 08:29:32;;;;;;;3.85;1.63;;;;;;;14.21;100.00;100041.25;4985758;28;20483;-63
2023/08/30 08:31:58;;;;;;;4.00;1.20;;;;;;;13.90;100.00;100046.28;4968562;28;20047;-64
2023/08/30 08:34:25;;;;;;;2.70;1.15;;;;;;;13.95;100.00;100046.53;4986534;28;20050;-63
2023/08/30 08:36:51;;;;;;;4.32;1.30;;;;;;;13.78;100.00;100037.94;4987054;28;20498;-63
2023/08/30 08:39:18;;;;;;;2.75;1.42;;;;;;;14.12;100.00;100053.28;4987111;28;20582;-64
2023/08/30 08:41:45;;;;;;;14.25;1.88;;;;;;;14.33;100.00;100048.81;4987321;28;20050;-66
2023/08/30 08:44:13;;;;;;;2.90;1.30;;;;;;;14.67;100.00;100050.56;4986418;28;20046;-65
2023/08/30 08:46:41;;;;;;;11.43;1.75;;;;;;;14.69;100.00;100053.91;4986656;28;20067;-65
2023/08/30 08:49:16;;;;;;;5.07;1.52;;;;;;;14.89;100.00;100057.50;4984942;28;20058;-65
2023/08/30 08:51:44;;;;;;;7.18;1.95;;;;;;;15.10;100.00;100056.50;4984428;28;20058;-65
2023/08/30 08:54:12;;;;;;;2.25;1.63;;;;;;;15.50;100.00;100056.53;4985099;28;20134;-65
2023/08/30 08:56:40;;;;;;;2.90;1.55;;;;;;;16.12;100.00;100057.88;4986528;28;20043;-65
2023/08/30 08:59:08;;;;;;;3.47;1.70;;;;;;;15.91;100.00;100068.97;4985357;28;20067;-65
2023/08/30 09:01:36;;;;;;;11.18;1.88;;;;;;;16.37;100.00;100062.59;4984327;28;20407;-65
2023/08/30 09:04:07;;;;;;;4.22;1.70;;;;;;;17.03;100.00;100067.69;4985498;28;20056;-65
2023/08/30 09:06:35;;;;;;;10.88;2.03;;;;;;;17.88;100.00;100069.91;4984733;28;20053;-65
2023/08/30 09:09:06;;;;;;;25.52;3.40;;;;;;;18.00;100.00;100079.00;4985324;28;20043;-65
2023/08/30 09:11:32;;;;;;;8.73;1.67;;;;;;;18.22;100.00;100065.00;4983760;28;20054;-65
2023/08/30 09:14:16;;;;;;;5.63;1.42;;;;;;;19.42;100.00;100069.63;4985003;28;20285;-66
2023/08/30 09:17:00;;;;;;;7.43;1.50;;;;;;;19.86;100.00;100062.78;4984487;28;20414;-65
2023/08/30 09:19:27;;;;;;;5.05;1.50;;;;;;;20.00;100.00;100066.09;4985466;28;20065;-66
2023/08/30 09:21:56;;;;;;;2.63;1.60;;;;;;;19.59;100.00;100056.13;4984538;28;20113;-66
2023/08/30 09:24:23;;;;;;;1.98;1.30;;;;;;;19.96;100.00;100060.28;4983469;28;20484;-64
2023/08/30 09:26:52;;;;;;;5.70;1.23;;;;;;;20.46;99.55;100055.38;4984274;28;20050;-66
2023/08/30 09:29:20;;;;;;;5.95;2.10;;;;;;;20.43;97.70;100053.97;4984683;28;20057;-66
2023/08/30 09:31:51;;;;;;;6.07;2.00;;;;;;;21.44;92.15;100059.63;4984017;28;20046;-66
2023/08/30 09:34:22;;;;;;;10.55;1.95;;;;;;;23.25;72.47;100057.00;4983316;28;20522;-66
2023/08/30 09:36:50;;;;;;;4.97;1.52;;;;;;;23.92;66.69;100053.72;4982692;28;20573;-66
2023/08/30 09:39:16;;;;;;;5.65;1.80;;;;;;;24.65;62.11;100047.47;4982528;28;20046;-66
2023/08/30 09:41:45;;;;;;;4.55;1.50;;;;;;;24.68;56.48;100050.47;4981983;28;20047;-66
2023/08/30 09:44:12;;;;;;;7.78;2.00;;;;;;;25.97;54.06;100054.91;4982495;28;20069;-67
2023/08/30 09:46:45;;;;;;;3.80;1.40;;;;;;;25.93;51.93;100051.06;4982566;28;20070;-65
2023/08/30 09:49:21;;;;;;;6.78;1.33;;;;;;;23.42;57.93;100052.22;4981522;28;20097;-67
2023/08/30 09:51:49;;;;;;;2.15;1.40;;;;;;;22.73;64.33;100055.66;4981101;28;20422;-66
2023/08/30 09:54:18;;;;;;;4.82;1.52;;;;;;;22.14;73.02;100052.75;4981575;28;20047;-67
2023/08/30 09:57:05;;;;;;;4.65;1.58;;;;;;;21.91;79.55;100048.38;4982311;28;20038;-66
2023/08/30 09:59:35;;;;;;;3.30;1.40;;;;;;;21.13;83.73;100047.38;4981247;28;20062;-66
2023/08/30 10:02:02;;;;;;;7.07;1.60;;;;;;;21.99;76.51;100038.91;4981349;28;20110;-66
2023/08/30 10:04:30;;;;;;;3.33;1.25;;;;;;;23.09;66.33;100042.38;4980272;28;20051;-65
2023/08/30 10:06:58;;;;;;;4.55;1.45;;;;;;;22.42;63.36;100031.78;4980346;28;20101;-67
2023/08/30 10:09:25;;;;;;;2.50;1.15;;;;;;;22.68;64.64;100031.03;4980568;28;20058;-66
2023/08/30 10:11:53;;;;;;;3.55;1.50;;;;;;;22.57;63.33;100032.00;4979906;28;20046;-66
2023/08/30 10:14:20;;;;;;;5.82;1.45;;;;;;;23.85;56.67;100027.63;4978473;28;20051;-66
2023/08/30 10:16:48;;;;;;;4.63;1.13;;;;;;;24.35;53.95;100031.69;4981520;28;20114;-66
2023/08/30 10:19:26;;;;;;;7.25;2.80;;;;;;;24.10;54.66;100025.03;4982735;28;20050;-66
2023/08/30 10:22:08;;;;;;;3.72;1.40;;;;;;;23.73;55.31;100017.66;4981604;28;20097;-67
2023/08/30 10:24:41;;;;;;;5.10;1.85;;;;;;;23.79;54.96;100021.31;4981974;28;20074;-66
2023/08/30 10:27:31;;;;;;;3.65;1.35;;;;;;;23.86;54.87;100023.81;4982141;28;20055;-66
2023/08/30 10:30:01;;;;;;;3.25;1.10;;;;;;;23.12;57.08;100022.72;4982070;28;20118;-66
2023/08/30 10:32:28;;;;;;;3.85;1.02;;;;;;;23.07;59.69;100022.63;4981526;28;20059;-66
2023/08/30 10:34:54;;;;;;;2.20;1.40;;;;;;;22.19;58.47;100025.50;4982609;28;20046;-68
2023/08/30 10:37:26;;;;;;;3.50;1.20;;;;;;;21.92;60.35;100027.34;4981499;28;20061;-67
2023/08/30 10:39:59;;;;;;;3.65;1.00;;;;;;;21.61;65.25;100035.88;4981848;28;20043;-67
2023/08/30 10:42:26;;;;;;;6.55;1.35;;;;;;;21.37;66.14;100034.41;4981988;28;20057;-66
2023/08/30 10:45:06;;;;;;;5.20;1.10;;;;;;;21.61;57.26;100030.41;4982123;28;20049;-66
2023/08/30 10:47:40;;;;;;;11.45;1.23;;;;;;;21.61;59.70;100029.59;4980882;28;20356;-67
2023/08/30 10:50:12;;;;;;;4.97;1.00;;;;;;;21.72;57.22;100017.75;4980958;28;20529;-66
2023/08/30 10:52:39;;;;;;;3.90;1.00;;;;;;;21.78;58.23;100026.84;4980915;28;20043;-66
2023/08/30 10:55:16;;;;;;;2.72;0.90;;;;;;;22.51;55.36;100031.09;4963813;28;20043;-66
2023/08/30 10:57:45;;;;;;;5.45;0.90;;;;;;;22.02;53.81;100033.75;4971413;28;20043;-68
2023/08/30 11:00:18;;;;;;;6.13;1.38;;;;;;;21.76;55.59;100029.81;4980950;28;20525;-67
2023/08/30 11:02:46;;;;;;;3.47;1.63;;;;;;;22.23;56.78;100036.75;4983178;28;20039;-67
2023/08/30 11:05:15;;;;;;;3.38;1.20;;;;;;;22.19;54.48;100043.81;4982041;28;20042;-66
2023/08/30 11:07:43;;;;;;;7.25;1.40;;;;;;;21.13;57.20;100037.28;4981664;28;20070;-66
2023/08/30 11:10:10;;;;;;;4.47;2.97;;;;;;;20.78;61.36;100042.09;4981150;28;20047;-67
2023/08/30 11:12:39;;;;;;;4.88;2.95;;;;;;;20.69;60.76;100038.91;4983830;28;20043;-66
2023/08/30 11:15:08;;;;;;;5.25;2.80;;;;;;;20.64;65.20;100042.38;4982742;28;20471;-65
2023/08/30 11:17:34;;;;;;;2.28;1.60;;;;;;;21.06;61.59;100030.31;4982725;28;20051;-66
2023/08/30 11:20:13;;;;;;;3.92;1.70;;;;;;;21.35;61.10;100034.66;4982952;28;20111;-67
2023/08/30 11:22:43;;;;;;;7.25;1.67;;;;;;;20.98;62.05;100030.75;4984430;28;20053;-64
2023/08/30 11:25:12;;;;;;;4.70;1.45;;;;;;;21.06;64.92;100042.06;4982694;28;20043;-65
2023/08/30 11:27:39;;;;;;;5.35;1.67;;;;;;;21.64;63.21;100042.75;4983417;28;20403;-66
2023/08/30 11:30:08;;;;;;;2.65;1.40;;;;;;;20.82;64.93;100038.63;4981283;28;20074;-65